Time;durP1;ratioP1;P1;durP2;ratioP2;P2;SDS_P1;SDS_P2;PMS_P1;PMS_P2;Temp;Humidity;BMP_temperature;BMP_pressure;BME280_temperature;BME280_humidity;BME280_pressure;Samples;Min_cycle;Max_cycle;Signal;HPM_P1;HPM_P2
2021/12/25 00:01:00;;;;;;;30.08;13.73;;;;;;;;;;8405572;28;20048;-78
2021/12/25 00:05:07;;;;;;;37.45;12.70;;;;;;;;;;8404627;28;20055;-78
2021/12/25 00:09:20;;;;;;;17.20;8.70;;;;;;;;;;8404762;28;20049;-77
2021/12/25 00:13:25;;;;;;;;;;;;;;;;;;8423139;28;20119;-77
2021/12/25 00:17:33;;;;;;;10.75;5.20;;;;;;;;;;8421508;28;19936;-81
2021/12/25 00:21:36;;;;;;;7.32;3.75;;;;;;;;;;8403990;28;20325;-77
2021/12/25 00:25:46;;;;;;;8.20;3.80;;;;;;;;;;8422170;28;20040;-78
2021/12/25 00:29:56;;;;;;;9.55;4.82;;;;;;;;;;8422705;28;20040;-77
2021/12/25 00:34:01;;;;;;;12.13;4.65;;;;;;;;;;8403789;28;20109;-77
2021/12/25 00:38:05;;;;;;;11.35;5.88;;;;;;;;;;8402610;28;20063;-77
2021/12/25 00:42:16;;;;;;;5.85;3.20;;;;;;;;;;8403092;28;20056;-77
2021/12/25 00:46:19;;;;;;;7.80;4.32;;;;;;;;;;8421029;28;20321;-78
2021/12/25 00:50:23;;;;;;;9.63;3.30;;;;;;;;;;8402507;28;20044;-83
2021/12/25 00:54:34;;;;;;;9.60;4.38;;;;;;;;;;8401350;28;20116;-78
2021/12/25 00:58:42;;;;;;;9.90;3.85;;;;;;;;;;8419680;28;20097;-80
2021/12/25 01:02:50;;;;;;;7.70;3.53;;;;;;;;;;8418805;28;20093;-79
2021/12/25 01:06:57;;;;;;;5.82;3.33;;;;;;;;;;8400926;28;20055;-77
2021/12/25 01:11:17;;;;;;;6.78;3.30;;;;;;;;;;8419769;28;20044;-78
2021/12/25 01:15:57;;;;;;;5.18;2.88;;;;;;;;;;8401299;28;20068;-77
2021/12/25 01:20:28;;;;;;;9.02;4.13;;;;;;;;;;8419137;28;20051;-77
2021/12/25 01:37:58;;;;;;;7.65;5.30;;;;;;;;;;8417913;28;20383;-77
2021/12/25 01:51:04;;;;;;;9.10;4.22;;;;;;;;;;8400710;28;20308;-77
2021/12/25 01:55:13;;;;;;;6.27;4.00;;;;;;;;;;8400498;28;20325;-76
2021/12/25 01:59:32;;;;;;;6.30;3.63;;;;;;;;;;8419012;28;20093;-78
2021/12/25 02:03:42;;;;;;;5.80;3.33;;;;;;;;;;8400607;28;20044;-78
2021/12/25 02:07:55;;;;;;;5.20;2.95;;;;;;;;;;8417898;28;20090;-78
2021/12/25 02:11:58;;;;;;;4.28;2.53;;;;;;;;;;8418208;28;20052;-78
2021/12/25 02:16:07;;;;;;;4.70;2.50;;;;;;;;;;8417183;28;20060;-77
2021/12/25 02:20:31;;;;;;;8.00;2.78;;;;;;;;;;8399725;28;20060;-78
2021/12/25 02:24:36;;;;;;;3.17;2.45;;;;;;;;;;8398935;28;20326;-77
2021/12/25 02:28:41;;;;;;;4.55;2.38;;;;;;;;;;8399385;28;20040;-77
2021/12/25 02:32:46;;;;;;;3.53;2.60;;;;;;;;;;8419955;28;20318;-77
2021/12/25 02:37:01;;;;;;;6.00;2.60;;;;;;;;;;8402296;28;20040;-77
2021/12/25 02:41:08;;;;;;;5.93;3.13;;;;;;;;;;8402549;28;20051;-84
2021/12/25 02:45:19;;;;;;;4.50;3.03;;;;;;;;;;8402070;28;20275;-77
2021/12/25 02:49:29;;;;;;;8.05;2.33;;;;;;;;;;8403233;28;20052;-83
2021/12/25 02:53:38;;;;;;;2.70;1.90;;;;;;;;;;8402579;28;20079;-78
2021/12/25 02:57:49;;;;;;;12.75;2.85;;;;;;;;;;8422278;28;20062;-77
2021/12/25 03:01:52;;;;;;;7.20;2.72;;;;;;;;;;8421806;28;20321;-77
2021/12/25 03:05:56;;;;;;;7.55;3.10;;;;;;;;;;8405661;28;20052;-81
2021/12/25 03:10:02;;;;;;;3.33;2.03;;;;;;;;;;8405108;28;20326;-84
2021/12/25 03:14:30;;;;;;;3.60;2.28;;;;;;;;;;8405394;28;20056;-77
2021/12/25 03:18:43;;;;;;;3.92;2.33;;;;;;;;;;8390031;28;20074;-88
2021/12/25 03:22:46;;;;;;;4.63;2.63;;;;;;;;;;8389993;28;20056;-83
2021/12/25 03:26:55;;;;;;;3.50;2.35;;;;;;;;;;8388616;28;20041;-85
2021/12/25 03:31:14;;;;;;;5.18;2.92;;;;;;;;;;8389008;28;20107;-79
2021/12/25 03:35:20;;;;;;;7.40;3.17;;;;;;;;;;8375029;28;20040;-78
2021/12/25 03:39:38;;;;;;;8.73;4.30;;;;;;;;;;8369915;28;20378;-79
2021/12/25 03:44:03;;;;;;;10.30;4.28;;;;;;;;;;8392153;28;20084;-85
2021/12/25 03:48:16;;;;;;;7.55;3.55;;;;;;;;;;8418190;28;20060;-87
2021/12/25 04:01:42;;;;;;;13.40;3.30;;;;;;;;;;8318034;28;20062;-85
2021/12/25 04:05:49;;;;;;;6.70;3.63;;;;;;;;;;8297327;28;20286;-85
2021/12/25 04:10:00;;;;;;;6.80;2.90;;;;;;;;;;8298296;28;20113;-78
2021/12/25 04:14:07;;;;;;;4.38;2.42;;;;;;;;;;8281195;28;20046;-82
2021/12/25 04:18:24;;;;;;;5.97;3.13;;;;;;;;;;8265892;28;20053;-84
2021/12/25 04:22:45;;;;;;;4.70;2.75;;;;;;;;;;8282175;28;20371;-78
2021/12/25 04:26:52;;;;;;;3.38;2.20;;;;;;;;;;8313237;28;20064;-84
2021/12/25 04:31:11;;;;;;;8.45;2.83;;;;;;;;;;8352322;28;20060;-81
2021/12/25 04:49:24;;;;;;;3.38;2.30;;;;;;;;;;8385651;28;20393;-81
2021/12/25 05:03:01;;;;;;;4.88;2.42;;;;;;;;;;8374123;28;20046;-80
2021/12/25 05:07:20;;;;;;;4.65;2.58;;;;;;;;;;8376941;28;20052;-80
2021/12/25 05:11:32;;;;;;;9.15;2.35;;;;;;;;;;8379637;28;20083;-79
2021/12/25 05:15:46;;;;;;;3.15;2.35;;;;;;;;;;8398902;28;20064;-86
2021/12/25 05:20:04;;;;;;;12.27;3.35;;;;;;;;;;8404914;28;20044;-84
2021/12/25 05:24:22;;;;;;;5.63;2.72;;;;;;;;;;8402652;28;20055;-78
2021/12/25 05:28:40;;;;;;;2.70;2.38;;;;;;;;;;8422626;28;20217;-80
2021/12/25 05:32:43;;;;;;;12.48;3.10;;;;;;;;;;8406266;28;20356;-79
2021/12/25 05:36:46;;;;;;;8.35;5.30;;;;;;;;;;8424640;28;20048;-86
2021/12/25 05:41:00;;;;;;;10.15;4.07;;;;;;;;;;8404637;28;20048;-84
2021/12/25 05:45:11;;;;;;;9.95;4.72;;;;;;;;;;8424332;28;20041;-78
2021/12/25 05:49:15;;;;;;;12.88;5.68;;;;;;;;;;8404662;28;20071;-86
2021/12/25 05:53:37;;;;;;;12.63;6.22;;;;;;;;;;8411706;28;20040;-86
2021/12/25 05:57:54;;;;;;;6.95;5.13;;;;;;;;;;8408927;28;20098;-79
2021/12/25 06:02:12;;;;;;;6.00;3.13;;;;;;;;;;8403148;28;20135;-78
2021/12/25 06:06:18;;;;;;;4.60;3.25;;;;;;;;;;8403330;28;20237;-78
2021/12/25 06:10:21;;;;;;;7.22;3.58;;;;;;;;;;8420289;28;20041;-78
2021/12/25 06:14:39;;;;;;;4.45;2.75;;;;;;;;;;8405924;28;20052;-80
2021/12/25 06:18:46;;;;;;;;;;;;;;;;;;8427835;28;20062;-87
2021/12/25 06:22:53;;;;;;;16.38;7.90;;;;;;;;;;8427579;28;19916;-82
2021/12/25 06:27:10;;;;;;;16.85;8.98;;;;;;;;;;8418434;28;20048;-81
2021/12/25 06:31:19;;;;;;;11.27;5.45;;;;;;;;;;8369197;28;20114;-80
2021/12/25 06:35:37;;;;;;;8.15;4.10;;;;;;;;;;8369790;28;20117;-85
2021/12/25 06:39:57;;;;;;;11.00;7.13;;;;;;;;;;8404233;28;20242;-79
2021/12/25 06:44:13;;;;;;;22.73;11.10;;;;;;;;;;8391130;28;20342;-80
2021/12/25 06:48:45;;;;;;;20.80;8.77;;;;;;;;;;8404362;28;20087;-81
2021/12/25 06:53:00;;;;;;;8.10;5.25;;;;;;;;;;8413169;28;20036;-79
2021/12/25 06:57:17;;;;;;;15.13;6.07;;;;;;;;;;8389008;28;20037;-79
2021/12/25 07:01:23;;;;;;;20.63;11.10;;;;;;;;;;8354246;28;20045;-79
2021/12/25 07:05:41;;;;;;;16.08;7.88;;;;;;;;;;8341893;28;20077;-82
2021/12/25 07:09:50;;;;;;;15.48;7.70;;;;;;;;;;8327080;28;20053;-77
2021/12/25 07:14:11;;;;;;;7.88;5.05;;;;;;;;;;8345241;28;20053;-78
2021/12/25 07:18:22;;;;;;;11.73;6.32;;;;;;;;;;8352535;28;20111;-79
2021/12/25 07:22:41;;;;;;;8.90;4.88;;;;;;;;;;8395875;28;20055;-77
2021/12/25 07:27:06;;;;;;;22.90;7.63;;;;;;;;;;8396122;28;20116;-79
2021/12/25 07:31:33;;;;;;;13.90;6.47;;;;;;;;;;8395042;28;20115;-78
2021/12/25 07:40:42;;;;;;;13.50;7.78;;;;;;;;;;8404621;28;20036;-78
2021/12/25 07:45:04;;;;;;;34.65;18.50;;;;;;;;;;8413962;28;20043;-78
2021/12/25 07:49:19;;;;;;;21.50;11.90;;;;;;;;;;8379292;28;20266;-78
2021/12/25 07:53:31;;;;;;;19.48;9.52;;;;;;;;;;8381340;28;20048;-77
2021/12/25 07:57:35;;;;;;;31.83;15.30;;;;;;;;;;8410987;28;20044;-78
2021/12/25 08:01:48;;;;;;;41.72;18.55;;;;;;;;;;8366558;28;20102;-76
2021/12/25 08:05:56;;;;;;;41.58;15.60;;;;;;;;;;8379875;28;20073;-77
2021/12/25 08:10:28;;;;;;;32.53;12.77;;;;;;;;;;8398354;28;20095;-76
2021/12/25 08:14:45;;;;;;;31.85;12.20;;;;;;;;;;8380079;28;20069;-75
2021/12/25 08:18:53;;;;;;;20.15;10.18;;;;;;;;;;8379771;28;20045;-79
2021/12/25 08:23:01;;;;;;;26.77;9.98;;;;;;;;;;8401781;28;20082;-78
2021/12/25 08:27:17;;;;;;;21.73;9.38;;;;;;;;;;8420892;28;20101;-78
2021/12/25 08:31:25;;;;;;;19.65;8.77;;;;;;;;;;8401504;28;20255;-78
2021/12/25 08:35:39;;;;;;;22.35;11.32;;;;;;;;;;8402375;28;20353;-78
2021/12/25 08:39:49;;;;;;;17.10;8.65;;;;;;;;;;8399813;28;20103;-78
2021/12/25 08:44:19;;;;;;;16.35;9.07;;;;;;;;;;8391548;28;20052;-78
2021/12/25 08:48:31;;;;;;;29.35;12.38;;;;;;;;;;8413558;28;20218;-82
2021/12/25 08:52:42;;;;;;;27.38;9.73;;;;;;;;;;8390035;28;20237;-76
2021/12/25 08:56:52;;;;;;;31.45;12.98;;;;;;;;;;8379912;28;20077;-80
2021/12/25 09:01:01;;;;;;;18.77;8.55;;;;;;;;;;8381097;28;20061;-78
2021/12/25 09:05:09;;;;;;;26.42;10.25;;;;;;;;;;8388257;28;20087;-77
2021/12/25 09:09:22;;;;;;;20.48;9.32;;;;;;;;;;8390903;28;20398;-85
2021/12/25 09:13:37;;;;;;;23.20;8.65;;;;;;;;;;8389863;28;20048;-77
2021/12/25 09:17:44;;;;;;;143.35;41.78;;;;;;;;;;8408892;28;20330;-87
2021/12/25 09:21:47;;;;;;;23.65;9.88;;;;;;;;;;8400705;28;20063;-82
2021/12/25 09:26:02;;;;;;;35.25;11.93;;;;;;;;;;8398783;28;20049;-77
2021/12/25 09:30:16;;;;;;;98.50;33.03;;;;;;;;;;8400877;28;20057;-77
2021/12/25 09:34:41;;;;;;;152.55;51.03;;;;;;;;;;8397609;28;20169;-80
2021/12/25 09:39:06;;;;;;;23.42;7.80;;;;;;;;;;8413054;28;20059;-78
2021/12/25 09:43:19;;;;;;;17.77;6.63;;;;;;;;;;8416273;28;20048;-78
2021/12/25 09:48:06;;;;;;;18.67;7.82;;;;;;;;;;8391001;28;20068;-77
2021/12/25 09:52:50;;;;;;;29.60;10.30;;;;;;;;;;8379066;28;20072;-77
2021/12/25 09:57:41;;;;;;;;;;;;;;;;;;;;;
2021/12/25 10:02:01;;;;;;;22.90;9.63;;;;;;;;;;8407162;28;20040;-78
2021/12/25 10:06:31;;;;;;;19.58;7.47;;;;;;;;;;8413471;28;20496;-77
2021/12/25 10:10:57;;;;;;;21.02;7.43;;;;;;;;;;8392912;28;20052;-76
2021/12/25 10:15:17;;;;;;;20.65;7.80;;;;;;;;;;8384513;28;20052;-84
2021/12/25 10:19:37;;;;;;;19.27;8.00;;;;;;;;;;8396717;28;20090;-78
2021/12/25 10:23:58;;;;;;;;;;;;;;;;;;;;;
2021/12/25 10:28:12;;;;;;;18.53;8.03;;;;;;;;;;8395918;28;20112;-77
2021/12/25 10:32:28;;;;;;;21.15;7.47;;;;;;;;;;8391592;28;20122;-76
2021/12/25 10:36:50;;;;;;;26.10;9.63;;;;;;;;;;8373867;28;20048;-77
2021/12/25 10:41:19;;;;;;;13.95;6.68;;;;;;;;;;8405946;28;20046;-77
2021/12/25 10:45:31;;;;;;;20.00;6.68;;;;;;;;;;8390830;28;20059;-80
2021/12/25 10:55:00;;;;;;;19.17;7.82;;;;;;;;;;8329300;28;20046;-81
2021/12/25 11:04:32;;;;;;;13.57;5.75;;;;;;;;;;7997603;27;14811804;-80
2021/12/25 11:08:47;;;;;;;17.50;6.47;;;;;;;;;;8489656;28;20047;-79
2021/12/25 11:12:53;;;;;;;21.05;6.75;;;;;;;;;;8480411;28;20171;-80
2021/12/25 11:17:27;;;;;;;16.73;5.47;;;;;;;;;;8488702;28;20050;-80
2021/12/25 11:21:41;;;;;;;15.65;6.57;;;;;;;;;;8470787;28;20435;-80
2021/12/25 11:25:46;;;;;;;16.13;6.78;;;;;;;;;;8490054;28;20375;-79
2021/12/25 11:29:53;;;;;;;18.40;6.50;;;;;;;;;;8488157;28;20141;-79
2021/12/25 11:33:59;;;;;;;13.68;6.00;;;;;;;;;;8486578;28;20066;-79
2021/12/25 11:38:09;;;;;;;15.85;6.00;;;;;;;;;;8488096;28;20043;-80
2021/12/25 11:42:13;;;;;;;18.77;5.40;;;;;;;;;;8489188;28;20047;-81
2021/12/25 11:46:17;;;;;;;16.58;6.47;;;;;;;;;;8491193;28;20550;-79
2021/12/25 11:50:34;;;;;;;18.00;6.57;;;;;;;;;;8489974;28;20035;-78
2021/12/25 11:55:00;;;;;;;12.07;5.90;;;;;;;;;;8482842;28;20043;-79
2021/12/25 11:59:17;;;;;;;17.27;5.82;;;;;;;;;;8473214;28;20544;-78
2021/12/25 12:03:41;;;;;;;10.60;5.43;;;;;;;;;;8485564;28;20085;-78
2021/12/25 12:08:02;;;;;;;12.88;5.65;;;;;;;;;;8489653;28;20128;-79
2021/12/25 12:12:20;;;;;;;18.08;6.45;;;;;;;;;;8482351;28;20035;-81
2021/12/25 12:16:38;;;;;;;11.18;5.55;;;;;;;;;;8461372;28;20040;-81
2021/12/25 12:20:41;;;;;;;15.95;5.55;;;;;;;;;;8459489;28;20043;-81
2021/12/25 12:24:51;;;;;;;15.48;6.07;;;;;;;;;;8451003;28;20040;-81
2021/12/25 12:29:57;;;;;;;19.15;6.20;;;;;;;;;;8448957;28;20043;-81
2021/12/25 12:34:47;;;;;;;8.43;4.85;;;;;;;;;;8468315;28;20510;-81
2021/12/25 12:39:19;;;;;;;24.77;7.22;;;;;;;;;;8420070;28;20138;-81
2021/12/25 12:43:52;;;;;;;10.23;5.18;;;;;;;;;;8432322;28;20147;-80
2021/12/25 12:48:17;;;;;;;15.63;7.10;;;;;;;;;;8462749;28;20526;-81
2021/12/25 12:52:25;;;;;;;42.97;16.02;;;;;;;;;;8466162;28;20575;-80
2021/12/25 12:56:29;;;;;;;57.42;21.08;;;;;;;;;;8466613;28;20478;-80
2021/12/25 13:00:33;;;;;;;58.47;19.25;;;;;;;;;;8465527;28;20062;-80
2021/12/25 13:04:45;;;;;;;34.75;14.20;;;;;;;;;;8467350;28;20047;-80
2021/12/25 13:08:48;;;;;;;;;;;;;;;;;;8468097;28;20483;-79
2021/12/25 13:13:06;;;;;;;41.90;13.65;;;;;;;;;;8466925;28;19919;-81
2021/12/25 13:17:14;;;;;;;22.30;8.55;;;;;;;;;;8459802;28;20044;-80
2021/12/25 13:21:23;;;;;;;21.90;9.15;;;;;;;;;;8452318;28;20097;-80
2021/12/25 13:25:27;;;;;;;31.85;9.75;;;;;;;;;;8431934;28;20044;-80
2021/12/25 13:29:32;;;;;;;25.95;8.05;;;;;;;;;;8431476;28;20044;-81
2021/12/25 13:33:43;;;;;;;19.88;7.95;;;;;;;;;;8433896;28;20032;-80
2021/12/25 13:37:57;;;;;;;23.02;6.88;;;;;;;;;;8440784;28;20052;-80
2021/12/25 13:42:09;;;;;;;22.23;8.23;;;;;;;;;;8460803;28;20489;-80
2021/12/25 13:46:12;;;;;;;22.83;9.07;;;;;;;;;;8465466;28;20108;-81
2021/12/25 13:50:19;;;;;;;27.65;11.43;;;;;;;;;;8436300;28;20055;-81
2021/12/25 13:54:25;;;;;;;33.90;15.65;;;;;;;;;;8458880;28;20467;-80
2021/12/25 13:58:30;;;;;;;43.65;17.02;;;;;;;;;;8446823;28;20050;-81
2021/12/25 14:02:34;;;;;;;51.72;20.70;;;;;;;;;;8457441;28;20056;-79
2021/12/25 14:06:38;;;;;;;56.10;21.40;;;;;;;;;;8442865;28;20040;-80
2021/12/25 14:10:45;;;;;;;51.08;19.25;;;;;;;;;;8433027;28;20048;-80
2021/12/25 14:14:50;;;;;;;49.60;20.20;;;;;;;;;;8442719;28;20055;-80
2021/12/25 14:18:53;;;;;;;68.22;23.05;;;;;;;;;;8431579;28;20069;-79
2021/12/25 14:23:04;;;;;;;80.55;33.42;;;;;;;;;;8431108;28;20098;-80
2021/12/25 14:27:12;;;;;;;96.40;34.30;;;;;;;;;;8447390;28;20452;-79
2021/12/25 14:31:18;;;;;;;67.78;24.23;;;;;;;;;;8465014;28;20043;-80
2021/12/25 14:35:22;;;;;;;54.10;20.90;;;;;;;;;;8449152;28;20072;-80
2021/12/25 14:39:27;;;;;;;39.10;17.08;;;;;;;;;;8436246;28;20047;-81
2021/12/25 14:43:34;;;;;;;36.35;13.25;;;;;;;;;;8439502;28;20135;-80
2021/12/25 14:47:48;;;;;;;28.35;13.93;;;;;;;;;;8446505;28;20047;-79
2021/12/25 14:51:52;;;;;;;33.30;13.45;;;;;;;;;;8443988;28;20035;-80
2021/12/25 14:56:02;;;;;;;36.03;13.63;;;;;;;;;;8463199;28;20394;-80
2021/12/25 15:00:11;;;;;;;52.08;13.70;;;;;;;;;;8464345;28;20392;-79
2021/12/25 15:04:20;;;;;;;32.15;13.57;;;;;;;;;;8464152;28;20051;-79
2021/12/25 15:08:28;;;;;;;62.42;20.33;;;;;;;;;;8464302;28;20467;-80
2021/12/25 15:12:34;;;;;;;34.55;15.73;;;;;;;;;;8464122;28;20051;-79
2021/12/25 15:16:44;;;;;;;31.92;11.32;;;;;;;;;;8464514;28;20048;-79
2021/12/25 15:20:48;;;;;;;26.50;8.35;;;;;;;;;;8461989;28;20064;-79
2021/12/25 15:24:53;;;;;;;30.75;9.05;;;;;;;;;;8471970;28;20048;-81
2021/12/25 15:29:00;;;;;;;29.92;10.63;;;;;;;;;;8464173;28;20127;-78
2021/12/25 15:33:07;;;;;;;21.23;9.25;;;;;;;;;;8463960;28;20048;-79
2021/12/25 15:37:23;;;;;;;23.88;8.27;;;;;;;;;;8463994;28;20074;-78
2021/12/25 15:41:26;;;;;;;33.15;12.32;;;;;;;;;;8435405;28;20082;-78
2021/12/25 15:45:31;;;;;;;25.70;9.13;;;;;;;;;;8434883;28;20043;-78
2021/12/25 15:49:36;;;;;;;31.23;13.43;;;;;;;;;;8465354;28;20047;-78
2021/12/25 15:53:40;;;;;;;30.35;13.77;;;;;;;;;;8466947;28;20072;-78
2021/12/25 15:57:46;;;;;;;38.85;15.95;;;;;;;;;;8452739;28;20048;-78
2021/12/25 16:01:49;;;;;;;33.65;12.70;;;;;;;;;;8469083;28;20051;-78
2021/12/25 16:05:54;;;;;;;31.10;15.02;;;;;;;;;;8467724;28;20126;-78
2021/12/25 16:09:57;;;;;;;27.38;13.95;;;;;;;;;;8466399;28;20051;-76
2021/12/25 16:14:00;;;;;;;29.27;13.70;;;;;;;;;;8456792;28;20095;-78
2021/12/25 16:18:04;;;;;;;41.50;18.92;;;;;;;;;;8433570;28;20517;-78
2021/12/25 16:22:09;;;;;;;23.95;13.23;;;;;;;;;;8435606;28;20048;-79
2021/12/25 16:26:14;;;;;;;114.28;42.60;;;;;;;;;;8435070;28;20048;-78
2021/12/25 16:30:27;;;;;;;49.97;18.42;;;;;;;;;;8435546;28;20041;-78
2021/12/25 16:34:40;;;;;;;31.60;14.02;;;;;;;;;;8434576;28;20044;-78
2021/12/25 16:38:51;;;;;;;28.23;10.82;;;;;;;;;;8434484;28;20048;-78
2021/12/25 16:42:59;;;;;;;21.55;8.05;;;;;;;;;;8450628;28;20039;-78
2021/12/25 16:47:04;;;;;;;39.97;18.90;;;;;;;;;;8450678;28;20108;-78
2021/12/25 16:51:10;;;;;;;24.67;14.13;;;;;;;;;;8468364;28;20074;-78
2021/12/25 16:55:20;;;;;;;21.42;10.57;;;;;;;;;;8465865;28;20040;-78
2021/12/25 16:59:27;;;;;;;29.33;14.05;;;;;;;;;;8446598;28;20054;-79
2021/12/25 17:03:33;;;;;;;21.42;7.95;;;;;;;;;;8466695;28;20506;-78
2021/12/25 17:07:37;;;;;;;19.38;10.57;;;;;;;;;;8467401;28;20410;-77
2021/12/25 17:11:42;;;;;;;30.65;15.13;;;;;;;;;;8465877;28;20044;-78
2021/12/25 17:15:47;;;;;;;19.23;8.27;;;;;;;;;;8440977;28;20101;-78
2021/12/25 17:19:53;;;;;;;27.98;11.50;;;;;;;;;;8434388;28;20093;-77
2021/12/25 17:23:57;;;;;;;24.92;10.75;;;;;;;;;;8465650;28;20447;-77
2021/12/25 17:28:03;;;;;;;26.20;8.80;;;;;;;;;;8462638;28;20093;-78
2021/12/25 17:32:07;;;;;;;17.42;6.38;;;;;;;;;;8466517;28;20088;-78
2021/12/25 17:36:10;;;;;;;17.60;6.95;;;;;;;;;;8466494;28;20047;-77
2021/12/25 17:40:16;;;;;;;16.33;8.02;;;;;;;;;;8441725;28;20044;-77
2021/12/25 17:44:23;;;;;;;14.07;8.63;;;;;;;;;;8451086;28;20139;-76
2021/12/25 17:48:26;;;;;;;79.95;23.05;;;;;;;;;;8465842;28;20054;-77
2021/12/25 17:52:30;;;;;;;42.45;16.42;;;;;;;;;;8465753;28;20667;-79
2021/12/25 17:56:34;;;;;;;47.45;12.80;;;;;;;;;;8465652;28;20043;-80
2021/12/25 18:00:43;;;;;;;16.52;8.68;;;;;;;;;;8465800;28;20682;-79
2021/12/25 18:04:59;;;;;;;17.02;9.20;;;;;;;;;;8465441;28;20379;-77
2021/12/25 18:09:02;;;;;;;19.98;11.25;;;;;;;;;;8464835;28;20054;-79
2021/12/25 18:13:07;;;;;;;59.90;23.45;;;;;;;;;;8464800;28;20433;-79
2021/12/25 18:17:13;;;;;;;81.45;25.73;;;;;;;;;;8456019;28;20130;-79
2021/12/25 18:21:22;;;;;;;209.60;58.15;;;;;;;;;;8443387;28;20040;-79
2021/12/25 18:25:26;;;;;;;39.17;15.30;;;;;;;;;;8463245;28;20520;-80
2021/12/25 18:29:34;;;;;;;74.43;27.55;;;;;;;;;;8458901;28;20047;-81
2021/12/25 18:33:42;;;;;;;23.17;14.25;;;;;;;;;;8462643;28;20060;-80
2021/12/25 18:37:48;;;;;;;63.50;22.10;;;;;;;;;;8463362;28;20047;-82
2021/12/25 18:41:56;;;;;;;52.08;23.40;;;;;;;;;;8464372;28;20047;-82
2021/12/25 18:46:03;;;;;;;50.28;20.45;;;;;;;;;;8461704;28;20101;-78
2021/12/25 18:50:16;;;;;;;36.65;15.52;;;;;;;;;;8437847;28;20051;-78
2021/12/25 18:54:27;;;;;;;35.47;14.63;;;;;;;;;;8463613;28;20043;-78
2021/12/25 18:58:35;;;;;;;34.67;14.65;;;;;;;;;;8479143;28;20039;-78
2021/12/25 19:02:39;;;;;;;34.85;15.98;;;;;;;;;;8478330;28;20096;-80
2021/12/25 19:06:48;;;;;;;40.40;19.77;;;;;;;;;;8464845;28;20044;-79
2021/12/25 19:10:54;;;;;;;67.15;16.60;;;;;;;;;;8460489;28;20040;-78
2021/12/25 19:15:01;;;;;;;58.08;15.57;;;;;;;;;;8481299;28;20039;-76
2021/12/25 19:19:06;;;;;;;17.60;11.70;;;;;;;;;;8464299;28;20096;-81
2021/12/25 19:23:21;;;;;;;29.08;13.07;;;;;;;;;;8462563;28;20383;-76
2021/12/25 19:27:29;;;;;;;17.80;10.02;;;;;;;;;;8470391;28;20122;-77
2021/12/25 19:31:43;;;;;;;29.98;9.52;;;;;;;;;;8471241;28;20131;-76
2021/12/25 19:35:53;;;;;;;14.32;9.35;;;;;;;;;;8447341;28;20047;-79
2021/12/25 19:40:03;;;;;;;25.65;12.52;;;;;;;;;;8435898;28;20172;-81
2021/12/25 19:44:11;;;;;;;13.40;6.18;;;;;;;;;;8440357;28;20567;-77
2021/12/25 19:48:26;;;;;;;14.77;7.60;;;;;;;;;;8447926;28;20143;-76
2021/12/25 19:52:34;;;;;;;23.73;11.00;;;;;;;;;;8456855;28;20478;-76
2021/12/25 19:56:45;;;;;;;17.65;10.45;;;;;;;;;;8446196;28;20109;-78
2021/12/25 20:01:03;;;;;;;54.08;26.40;;;;;;;;;;8438900;28;20102;-77
2021/12/25 20:05:10;;;;;;;8.93;5.68;;;;;;;;;;8446094;28;20142;-79
2021/12/25 20:09:17;;;;;;;16.08;8.70;;;;;;;;;;8434607;28;20050;-83
2021/12/25 20:13:34;;;;;;;9.75;6.88;;;;;;;;;;8416055;28;20095;-84
2021/12/25 20:17:45;;;;;;;13.48;8.25;;;;;;;;;;8434804;28;20055;-82
2021/12/25 20:21:56;;;;;;;32.58;11.13;;;;;;;;;;8416662;28;20055;-82
2021/12/25 20:26:10;;;;;;;13.27;7.28;;;;;;;;;;8434545;28;20552;-76
2021/12/25 20:30:22;;;;;;;22.13;8.57;;;;;;;;;;8441992;28;20123;-82
2021/12/25 20:34:33;;;;;;;19.35;9.95;;;;;;;;;;8460015;28;20544;-82
2021/12/25 20:38:51;;;;;;;22.83;13.60;;;;;;;;;;8452157;28;20051;-82
2021/12/25 20:43:05;;;;;;;58.28;21.13;;;;;;;;;;8466626;28;20052;-81
2021/12/25 20:47:18;;;;;;;29.60;10.95;;;;;;;;;;8457807;28;20048;-77
2021/12/25 20:51:30;;;;;;;9.73;6.00;;;;;;;;;;8457709;28;20140;-77
2021/12/25 20:55:46;;;;;;;24.98;9.48;;;;;;;;;;8465842;28;20039;-79
2021/12/25 21:00:00;;;;;;;13.02;9.32;;;;;;;;;;8467162;28;20044;-83
2021/12/25 21:04:11;;;;;;;17.75;10.73;;;;;;;;;;8465738;28;20080;-81
2021/12/25 21:08:25;;;;;;;19.25;10.98;;;;;;;;;;8466988;28;20044;-76
2021/12/25 21:12:38;;;;;;;19.05;10.02;;;;;;;;;;8466072;28;20048;-76
2021/12/25 21:16:49;;;;;;;15.82;10.70;;;;;;;;;;8465666;28;20048;-82
2021/12/25 21:21:01;;;;;;;23.17;9.32;;;;;;;;;;8464603;28;20709;-76
2021/12/25 21:25:13;;;;;;;37.30;13.68;;;;;;;;;;8453738;28;20139;-82
2021/12/25 21:29:25;;;;;;;23.02;11.43;;;;;;;;;;8459667;28;20044;-80
2021/12/25 21:33:39;;;;;;;14.90;10.52;;;;;;;;;;8461661;28;20056;-82
2021/12/25 21:37:51;;;;;;;19.73;11.07;;;;;;;;;;8433271;28;20044;-76
2021/12/25 21:41:59;;;;;;;37.33;19.52;;;;;;;;;;8462670;28;20507;-76
2021/12/25 21:46:14;;;;;;;29.05;13.10;;;;;;;;;;8464645;28;20056;-82
2021/12/25 21:50:45;;;;;;;14.77;8.30;;;;;;;;;;8455121;28;20055;-79
2021/12/25 21:55:03;;;;;;;33.63;12.65;;;;;;;;;;8461450;28;20043;-82
2021/12/25 21:59:16;;;;;;;16.13;9.30;;;;;;;;;;8465451;28;20498;-82
2021/12/25 22:03:27;;;;;;;26.55;10.30;;;;;;;;;;8463084;28;20063;-76
2021/12/25 22:07:41;;;;;;;16.90;9.23;;;;;;;;;;8446197;28;20043;-76
2021/12/25 22:11:54;;;;;;;18.45;9.90;;;;;;;;;;8445872;28;20044;-77
2021/12/25 22:15:58;;;;;;;13.40;9.40;;;;;;;;;;8454590;28;20044;-80
2021/12/25 22:20:04;;;;;;;8.57;6.90;;;;;;;;;;8458670;28;20055;-74
2021/12/25 22:24:16;;;;;;;13.43;8.05;;;;;;;;;;8441282;28;21675;-76
2021/12/25 22:28:32;;;;;;;23.10;11.10;;;;;;;;;;8440623;28;20434;-76
2021/12/25 22:32:40;;;;;;;18.40;11.43;;;;;;;;;;8446692;28;20097;-77
2021/12/25 22:36:47;;;;;;;16.38;6.68;;;;;;;;;;8439381;28;20044;-77
2021/12/25 22:40:54;;;;;;;38.78;15.43;;;;;;;;;;8438939;28;20044;-78
2021/12/25 22:44:59;;;;;;;40.10;15.65;;;;;;;;;;8429307;28;20415;-77
2021/12/25 22:49:02;;;;;;;34.88;13.52;;;;;;;;;;8435509;28;20134;-75
2021/12/25 22:53:07;;;;;;;33.88;12.48;;;;;;;;;;8441056;28;20067;-74
2021/12/25 22:57:10;;;;;;;42.13;15.98;;;;;;;;;;8447045;28;20066;-75
2021/12/25 23:01:18;;;;;;;47.28;16.70;;;;;;;;;;8440349;28;20507;-75
2021/12/25 23:05:27;;;;;;;24.52;11.88;;;;;;;;;;8446675;28;20430;-76
2021/12/25 23:09:30;;;;;;;94.78;43.67;;;;;;;;;;8453116;28;20048;-75
2021/12/25 23:13:33;;;;;;;50.30;22.98;;;;;;;;;;8447836;28;20136;-74
2021/12/25 23:17:37;;;;;;;58.35;28.80;;;;;;;;;;8449338;28;20044;-75
2021/12/25 23:21:44;;;;;;;29.42;19.52;;;;;;;;;;8452630;28;20043;-75
2021/12/25 23:25:49;;;;;;;20.77;9.02;;;;;;;;;;8453008;28;20043;-74
2021/12/25 23:29:55;;;;;;;31.85;17.42;;;;;;;;;;8456148;28;20048;-76
2021/12/25 23:33:59;;;;;;;21.67;11.73;;;;;;;;;;8442162;28;20031;-76
2021/12/25 23:38:02;;;;;;;22.63;13.55;;;;;;;;;;8430158;28;20463;-76
2021/12/25 23:42:05;;;;;;;26.70;12.05;;;;;;;;;;8437384;28;20475;-75
2021/12/25 23:46:08;;;;;;;19.40;10.43;;;;;;;;;;8459960;28;20493;-75
2021/12/25 23:50:16;;;;;;;46.85;23.50;;;;;;;;;;8441792;28;20046;-82
2021/12/25 23:54:22;;;;;;;36.97;17.67;;;;;;;;;;8458231;28;20123;-77
2021/12/25 23:58:26;;;;;;;72.78;17.10;;;;;;;;;;8452645;28;20066;-75
